createdAt,value
2022-12-13T00:01:33.177Z,6.00
2022-12-13T00:04:03.145Z,6.30
2022-12-13T00:06:30.924Z,5.72
2022-12-13T00:08:58.828Z,5.65
2022-12-13T00:11:27.458Z,4.90
2022-12-13T00:13:55.180Z,5.62
2022-12-13T00:16:24.337Z,5.30
2022-12-13T00:18:59.219Z,4.95
2022-12-13T00:21:29.092Z,4.57
2022-12-13T00:23:56.737Z,5.07
2022-12-13T00:26:27.100Z,5.15
2022-12-13T00:28:54.733Z,6.10
2022-12-13T00:34:11.299Z,4.68
2022-12-13T00:36:38.195Z,4.47
2022-12-13T00:39:05.045Z,4.55
2022-12-13T00:41:34.019Z,5.15
2022-12-13T00:44:01.495Z,5.10
2022-12-13T00:46:29.607Z,5.87
2022-12-13T00:48:59.566Z,4.93
2022-12-13T00:51:28.417Z,6.20
2022-12-13T00:53:55.742Z,5.57
2022-12-13T00:56:25.707Z,5.07
2022-12-13T00:58:54.308Z,4.78
2022-12-13T01:01:25.120Z,5.37
2022-12-13T01:03:57.725Z,5.50
2022-12-13T01:06:34.191Z,5.78
2022-12-13T01:09:02.613Z,4.75
2022-12-13T01:11:29.693Z,5.43
2022-12-13T01:13:56.514Z,5.03
2022-12-13T01:16:23.509Z,5.53
2022-12-13T01:18:50.384Z,5.10
2022-12-13T01:21:20.851Z,4.93
2022-12-13T01:23:49.631Z,4.95
2022-12-13T01:26:19.522Z,4.47
2022-12-13T01:28:47.026Z,5.57
2022-12-13T01:31:17.134Z,5.78
2022-12-13T01:33:44.442Z,6.50
2022-12-13T01:36:14.855Z,5.47
2022-12-13T01:38:41.920Z,5.80
2022-12-13T01:41:17.728Z,6.60
2022-12-13T01:43:47.633Z,6.78
2022-12-13T01:46:16.902Z,6.68
2022-12-13T01:48:58.355Z,6.95
2022-12-13T01:51:32.606Z,5.90
2022-12-13T01:54:03.126Z,5.57
2022-12-13T01:56:40.836Z,5.22
2022-12-13T01:59:10.847Z,5.25
2022-12-13T02:01:38.677Z,5.22
2022-12-13T02:04:06.931Z,5.53
2022-12-13T02:06:41.885Z,6.00
2022-12-13T02:09:13.214Z,5.22
2022-12-13T02:11:43.676Z,5.25
2022-12-13T02:14:10.690Z,6.22
2022-12-13T02:17:01.385Z,6.80
2022-12-13T02:20:05.670Z,7.22
2022-12-13T02:22:47.884Z,6.20
2022-12-13T02:25:44.693Z,7.78
2022-12-13T02:28:32.950Z,6.25
2022-12-13T02:31:11.117Z,11.37
2022-12-13T02:34:02.220Z,9.68
2022-12-13T02:36:56.531Z,7.12
2022-12-13T02:39:32.362Z,8.98
2022-12-13T02:42:21.199Z,9.55
2022-12-13T02:45:06.381Z,7.50
2022-12-13T02:47:35.088Z,6.55
2022-12-13T02:50:07.528Z,6.57
2022-12-13T02:52:35.840Z,7.43
2022-12-13T02:55:08.260Z,6.43
2022-12-13T02:57:36.937Z,9.73
2022-12-13T03:00:17.201Z,7.62
2022-12-13T03:03:10.302Z,6.90
2022-12-13T03:06:08.034Z,6.72
2022-12-13T03:08:43.660Z,6.55
2022-12-13T03:11:16.459Z,6.23
2022-12-13T03:13:53.029Z,6.32
2022-12-13T03:16:41.659Z,6.57
2022-12-13T03:19:11.173Z,5.28
2022-12-13T03:21:47.674Z,6.20
2022-12-13T03:24:18.203Z,6.17
2022-12-13T03:26:46.201Z,6.43
2022-12-13T03:29:13.117Z,6.57
2022-12-13T03:31:50.291Z,6.95
2022-12-13T03:34:22.669Z,6.05
2022-12-13T03:36:53.553Z,6.30
2022-12-13T03:39:21.081Z,6.87
2022-12-13T03:41:48.603Z,6.32
2022-12-13T03:44:15.897Z,6.97
2022-12-13T03:46:42.785Z,6.57
2022-12-13T03:49:13.672Z,7.03
2022-12-13T03:51:43.981Z,6.32
2022-12-13T03:54:10.774Z,6.93
2022-12-13T03:56:37.536Z,6.57
2022-12-13T03:59:04.415Z,6.18
2022-12-13T04:01:31.593Z,6.93
2022-12-13T04:03:58.453Z,6.72
2022-12-13T04:06:29.875Z,6.95
2022-12-13T04:08:59.828Z,6.57
2022-12-13T04:11:45.118Z,6.22
2022-12-13T04:14:12.312Z,6.50
2022-12-13T04:16:49.572Z,6.43
2022-12-13T04:19:16.558Z,7.03
2022-12-13T04:21:52.309Z,6.75
2022-12-13T04:24:19.194Z,6.82
2022-12-13T04:26:46.336Z,5.93
2022-12-13T04:29:13.364Z,6.43
2022-12-13T04:31:40.424Z,6.20
2022-12-13T04:34:07.357Z,7.00
2022-12-13T04:36:34.368Z,6.53
2022-12-13T04:39:02.585Z,8.27
2022-12-13T04:41:34.327Z,8.95
2022-12-13T04:44:02.482Z,11.68
2022-12-13T04:46:29.702Z,8.75
2022-12-13T04:48:56.696Z,8.68
2022-12-13T04:51:23.761Z,7.80
2022-12-13T04:53:50.828Z,7.50
2022-12-13T04:56:17.603Z,7.60
2022-12-13T04:58:44.721Z,7.62
2022-12-13T05:01:11.915Z,7.90
2022-12-13T05:03:39.658Z,7.17
2022-12-13T05:06:27.182Z,7.35
2022-12-13T05:09:00.803Z,7.95
2022-12-13T05:11:28.049Z,7.43
2022-12-13T05:14:03.071Z,7.85
2022-12-13T05:16:30.058Z,7.23
2022-12-13T05:18:56.951Z,7.68
2022-12-13T05:21:23.787Z,8.07
2022-12-13T05:23:50.838Z,7.70
2022-12-13T05:26:17.731Z,9.07
2022-12-13T05:28:44.553Z,13.23
2022-12-13T05:31:22.383Z,14.25
2022-12-13T05:33:50.049Z,9.95
2022-12-13T05:36:16.873Z,11.85
2022-12-13T05:38:43.855Z,11.55
2022-12-13T05:41:17.305Z,12.20
2022-12-13T05:43:44.142Z,12.75
2022-12-13T05:46:12.800Z,13.85
2022-12-13T05:48:40.462Z,13.40
2022-12-13T05:51:10.421Z,15.15
2022-12-13T05:53:40.470Z,14.73
2022-12-13T05:56:08.234Z,14.60
2022-12-13T05:58:36.449Z,11.25
2022-12-13T06:01:11.864Z,11.32
2022-12-13T06:03:39.550Z,13.57
2022-12-13T06:06:08.606Z,14.03
2022-12-13T06:08:36.222Z,11.45
2022-12-13T06:11:11.556Z,10.02
2022-12-13T06:13:44.020Z,9.50
2022-12-13T06:16:23.159Z,9.27
2022-12-13T06:18:59.449Z,9.67
2022-12-13T06:21:41.177Z,9.15
2022-12-13T06:24:10.535Z,8.48
2022-12-13T06:26:37.465Z,9.05
2022-12-13T06:29:04.328Z,9.20
2022-12-13T06:31:31.264Z,8.20
2022-12-13T06:34:14.282Z,8.85
2022-12-13T06:36:42.811Z,8.57
2022-12-13T06:39:09.804Z,7.70
2022-12-13T06:41:37.053Z,8.90
2022-12-13T06:44:05.024Z,10.00
2022-12-13T06:46:32.448Z,9.65
2022-12-13T06:48:59.811Z,10.63
2022-12-13T06:51:33.308Z,11.20
2022-12-13T06:54:02.775Z,12.30
2022-12-13T06:56:30.525Z,13.90
2022-12-13T06:59:02.072Z,10.45
2022-12-13T07:01:36.946Z,10.32
2022-12-13T07:04:28.815Z,10.35
2022-12-13T07:06:56.113Z,8.95
2022-12-13T07:09:30.988Z,10.10
2022-12-13T07:11:58.383Z,10.52
2022-12-13T07:14:25.334Z,11.88
2022-12-13T07:16:52.074Z,11.50
2022-12-13T07:19:23.830Z,12.68
2022-12-13T07:21:52.350Z,10.90
2022-12-13T07:24:19.685Z,12.73
2022-12-13T07:26:46.970Z,12.93
2022-12-13T07:29:13.773Z,13.23
2022-12-13T07:31:49.664Z,22.75
2022-12-13T07:34:16.852Z,15.27
2022-12-13T07:36:43.681Z,11.55
2022-12-13T07:39:10.519Z,12.30
2022-12-13T07:41:37.500Z,10.27
2022-12-13T07:44:04.916Z,9.70
2022-12-13T07:46:32.686Z,9.10
2022-12-13T07:49:05.018Z,8.63
2022-12-13T07:51:34.841Z,9.73
2022-12-13T07:54:06.793Z,9.40
2022-12-13T07:56:35.091Z,9.63
2022-12-13T07:59:02.552Z,9.97
2022-12-13T08:01:32.396Z,9.25
2022-12-13T08:03:59.471Z,8.65
2022-12-13T08:06:26.590Z,8.98
2022-12-13T08:08:57.559Z,8.80
2022-12-13T08:11:24.639Z,9.10
2022-12-13T08:13:53.907Z,8.77
2022-12-13T08:16:27.336Z,8.18
2022-12-13T08:19:02.658Z,7.80
2022-12-13T08:21:58.747Z,7.85
2022-12-13T08:24:31.111Z,7.37
2022-12-13T08:27:01.551Z,8.68
2022-12-13T08:29:35.853Z,8.40
2022-12-13T08:32:08.997Z,8.25
2022-12-13T08:34:36.756Z,7.62
2022-12-13T08:37:04.554Z,8.60
2022-12-13T08:39:35.704Z,8.20
2022-12-13T08:42:15.866Z,8.93
2022-12-13T08:44:49.260Z,8.35
2022-12-13T08:47:22.925Z,8.30
2022-12-13T08:50:03.199Z,9.30
2022-12-13T08:52:32.250Z,8.88
2022-12-13T08:55:12.405Z,9.95
2022-12-13T08:57:40.907Z,9.23
2022-12-13T09:00:12.385Z,8.70
2022-12-13T09:02:45.299Z,8.57
2022-12-13T09:05:13.094Z,8.88
2022-12-13T09:07:41.262Z,9.55
2022-12-13T09:10:26.882Z,8.65
2022-12-13T09:13:01.832Z,9.50
2022-12-13T09:15:33.989Z,9.00
2022-12-13T09:18:04.989Z,9.02
2022-12-13T09:20:41.336Z,8.88
2022-12-13T09:23:13.867Z,8.63
2022-12-13T09:26:04.839Z,9.25
2022-12-13T09:28:35.167Z,8.60
2022-12-13T09:31:06.538Z,8.57
2022-12-13T09:33:33.800Z,8.93
2022-12-13T09:36:12.204Z,8.63
2022-12-13T09:38:39.245Z,8.55
2022-12-13T09:41:20.178Z,8.30
2022-12-13T09:43:52.600Z,8.10
2022-12-13T09:46:34.416Z,9.27
2022-12-13T09:49:25.745Z,8.23
2022-12-13T09:52:10.697Z,8.57
2022-12-13T09:54:49.116Z,8.20
2022-12-13T09:57:32.931Z,8.57
2022-12-13T10:00:11.034Z,8.48
2022-12-13T10:02:50.575Z,8.15
2022-12-13T10:05:24.742Z,8.13
2022-12-13T10:08:14.442Z,7.57
2022-12-13T10:10:43.685Z,7.35
2022-12-13T10:13:19.509Z,7.72
2022-12-13T10:15:51.763Z,8.02
2022-12-13T10:18:31.246Z,7.82
2022-12-13T10:20:58.511Z,7.90
2022-12-13T10:23:47.121Z,7.00
2022-12-13T10:26:14.878Z,7.32
2022-12-13T10:29:02.972Z,6.28
2022-12-13T10:31:30.501Z,5.68
2022-12-13T10:33:57.625Z,5.87
2022-12-13T10:36:38.428Z,5.75
2022-12-13T10:39:05.777Z,5.60
2022-12-13T10:41:38.525Z,4.53
2022-12-13T10:44:23.095Z,4.90
2022-12-13T10:46:53.250Z,4.53
2022-12-13T10:49:26.511Z,4.35
2022-12-13T10:51:54.537Z,4.28
2022-12-13T10:54:25.414Z,4.70
2022-12-13T10:57:00.161Z,4.47
2022-12-13T10:59:34.473Z,4.10
2022-12-13T11:02:03.913Z,4.43
2022-12-13T11:04:33.774Z,4.20
2022-12-13T11:07:20.738Z,4.30
2022-12-13T11:09:52.736Z,3.80
2022-12-13T11:12:23.877Z,3.40
2022-12-13T11:15:00.602Z,3.40
2022-12-13T11:17:31.691Z,3.37
2022-12-13T11:20:19.863Z,3.83
2022-12-13T11:22:49.520Z,4.53
2022-12-13T11:25:26.801Z,3.53
2022-12-13T11:28:26.148Z,4.28
2022-12-13T11:31:19.396Z,4.55
2022-12-13T11:34:37.660Z,4.50
2022-12-13T11:37:23.208Z,4.93
2022-12-13T11:40:02.290Z,4.73
2022-12-13T11:43:07.087Z,4.60
2022-12-13T11:45:46.710Z,5.18
2022-12-13T11:48:20.977Z,4.90
2022-12-13T11:50:50.972Z,4.47
2022-12-13T11:53:30.264Z,5.03
2022-12-13T11:56:12.144Z,4.80
2022-12-13T11:59:09.551Z,4.50
2022-12-13T12:01:47.911Z,4.62
2022-12-13T12:04:31.816Z,4.90
2022-12-13T12:07:31.076Z,4.80
2022-12-13T12:10:14.355Z,4.68
2022-12-13T12:12:45.928Z,4.53
2022-12-13T12:15:26.621Z,4.87
2022-12-13T12:17:57.726Z,5.28
2022-12-13T12:20:52.507Z,4.93
2022-12-13T12:23:46.397Z,4.78
2022-12-13T12:26:43.098Z,5.05
2022-12-13T12:29:43.334Z,4.80
2022-12-13T12:32:31.222Z,5.37
2022-12-13T12:35:16.316Z,4.60
2022-12-13T12:38:14.523Z,4.68
2022-12-13T12:41:20.580Z,5.78
2022-12-13T12:44:12.708Z,5.35
2022-12-13T12:47:18.181Z,5.07
2022-12-13T12:49:59.830Z,5.23
2022-12-13T12:52:49.078Z,6.62
2022-12-13T12:55:27.868Z,6.10
2022-12-13T12:58:06.214Z,5.85
2022-12-13T13:00:48.845Z,5.62
2022-12-13T13:03:23.124Z,4.97
2022-12-13T13:06:19.826Z,5.07
2022-12-13T13:08:53.215Z,4.90
2022-12-13T13:11:26.029Z,5.00
2022-12-13T13:14:01.886Z,5.68
2022-12-13T13:16:37.605Z,5.43
2022-12-13T13:19:16.766Z,5.45
2022-12-13T13:22:02.040Z,5.30
2022-12-13T13:24:32.969Z,5.87
2022-12-13T13:27:19.631Z,5.45
2022-12-13T13:29:46.706Z,5.87
2022-12-13T13:32:28.773Z,5.53
2022-12-13T13:35:37.689Z,5.47
2022-12-13T13:38:28.473Z,5.90
2022-12-13T13:40:55.777Z,5.30
2022-12-13T13:43:32.930Z,4.93
2022-12-13T13:46:10.929Z,5.15
2022-12-13T13:48:46.390Z,6.05
2022-12-13T13:55:13.617Z,6.03
2022-12-13T13:58:08.758Z,6.90
2022-12-13T14:00:44.010Z,7.80
2022-12-13T14:03:34.637Z,6.05
2022-12-13T14:06:23.700Z,7.10
2022-12-13T14:08:56.645Z,6.40
2022-12-13T14:12:03.491Z,5.97
2022-12-13T14:14:52.348Z,6.25
2022-12-13T14:17:44.979Z,8.90
2022-12-13T14:20:27.071Z,6.28
2022-12-13T14:23:21.736Z,6.45
2022-12-13T14:26:11.884Z,7.20
2022-12-13T14:29:14.369Z,6.90
2022-12-13T14:31:47.445Z,7.12
2022-12-13T14:34:24.071Z,6.57
2022-12-13T14:37:01.284Z,6.78
2022-12-13T14:39:31.098Z,6.57
2022-12-13T14:42:00.659Z,6.80
2022-12-13T14:44:30.329Z,6.50
2022-12-13T14:47:00.634Z,7.12
2022-12-13T14:49:31.248Z,7.15
2022-12-13T14:52:03.741Z,10.20
2022-12-13T14:54:45.212Z,9.00
2022-12-13T14:57:23.801Z,10.00
2022-12-13T14:59:55.360Z,8.73
2022-12-13T15:02:30.418Z,9.15
2022-12-13T15:05:01.158Z,9.13
2022-12-13T15:07:38.492Z,8.70
2022-12-13T15:10:31.955Z,8.60
2022-12-13T15:12:59.459Z,9.90
2022-12-13T15:15:37.298Z,9.10
2022-12-13T15:18:18.695Z,8.17
2022-12-13T15:20:52.108Z,8.85
2022-12-13T15:23:48.725Z,11.43
2022-12-13T15:26:28.453Z,10.13
2022-12-13T15:28:59.369Z,12.02
2022-12-13T15:31:27.139Z,11.60
2022-12-13T15:34:01.099Z,11.05
2022-12-13T15:36:29.222Z,12.15
2022-12-13T15:38:56.007Z,12.88
2022-12-13T15:41:28.768Z,12.40
2022-12-13T15:44:01.018Z,13.90
2022-12-13T15:46:32.169Z,13.75
2022-12-13T15:49:02.750Z,13.07
2022-12-13T15:51:30.866Z,12.55
2022-12-13T15:54:04.885Z,11.88
2022-12-13T15:56:31.884Z,12.80
2022-12-13T15:58:59.380Z,14.25
2022-12-13T16:01:30.530Z,15.35
2022-12-13T16:03:57.916Z,17.30
2022-12-13T16:06:26.545Z,19.27
2022-12-13T16:08:56.975Z,17.23
2022-12-13T16:11:28.295Z,19.15
2022-12-13T16:14:25.908Z,25.00
2022-12-13T16:16:55.351Z,21.75
2022-12-13T16:19:23.025Z,21.75
2022-12-13T16:21:51.198Z,20.87
2022-12-13T16:24:20.427Z,21.33
2022-12-13T16:26:48.465Z,20.20
2022-12-13T16:29:21.784Z,21.33
2022-12-13T16:31:50.081Z,20.33
2022-12-13T16:34:18.043Z,22.73
2022-12-13T16:36:47.504Z,24.15
2022-12-13T16:39:15.186Z,27.77
2022-12-13T16:41:45.739Z,24.92
2022-12-13T16:44:36.004Z,16.20
2022-12-13T16:47:17.976Z,20.37
2022-12-13T16:49:50.080Z,21.15
2022-12-13T16:52:19.113Z,25.42
2022-12-13T16:54:47.616Z,22.58
2022-12-13T16:57:14.792Z,29.27
2022-12-13T16:59:41.991Z,22.00
2022-12-13T17:02:18.187Z,26.73
2022-12-13T17:04:46.426Z,23.87
2022-12-13T17:07:14.361Z,25.58
2022-12-13T17:09:42.764Z,26.65
2022-12-13T17:12:10.617Z,27.60
2022-12-13T17:14:38.425Z,28.55
2022-12-13T17:17:05.904Z,26.25
2022-12-13T17:19:34.718Z,26.10
2022-12-13T17:22:02.476Z,26.00
2022-12-13T17:24:31.527Z,24.70
2022-12-13T17:26:59.923Z,23.92
2022-12-13T17:29:27.317Z,23.48
2022-12-13T17:32:00.818Z,22.65
2022-12-13T17:34:28.403Z,23.05
2022-12-13T17:36:56.093Z,21.53
2022-12-13T17:39:23.443Z,23.17
2022-12-13T17:42:10.265Z,23.80
2022-12-13T17:44:37.622Z,24.83
2022-12-13T17:47:04.811Z,23.12
2022-12-13T17:49:32.158Z,23.50
2022-12-13T17:52:01.149Z,23.02
2022-12-13T17:54:29.583Z,24.70
2022-12-13T17:56:56.622Z,27.83
2022-12-13T17:59:27.337Z,25.67
2022-12-13T18:01:55.397Z,26.07
2022-12-13T18:04:42.352Z,23.08
2022-12-13T18:07:09.273Z,23.48
2022-12-13T18:09:37.690Z,23.70
2022-12-13T18:12:05.240Z,25.12
2022-12-13T18:14:32.847Z,23.63
2022-12-13T18:17:00.452Z,24.30
2022-12-13T18:19:32.421Z,23.73
2022-12-13T18:22:00.875Z,23.95
2022-12-13T18:24:28.815Z,23.98
2022-12-13T18:26:56.546Z,25.60
2022-12-13T18:29:24.932Z,25.27
2022-12-13T18:31:52.829Z,26.98
2022-12-13T18:34:20.699Z,25.62
2022-12-13T18:36:48.236Z,25.05
2022-12-13T18:39:17.370Z,24.13
2022-12-13T18:41:45.253Z,25.15
2022-12-13T18:44:15.589Z,25.10
2022-12-13T18:46:46.180Z,25.80
2022-12-13T18:49:14.255Z,27.33
2022-12-13T18:51:42.420Z,27.60
2022-12-13T18:54:10.334Z,29.80
2022-12-13T18:56:38.195Z,31.08
2022-12-13T18:59:16.311Z,29.75
2022-12-13T19:01:44.923Z,33.30
2022-12-13T19:04:13.167Z,32.93
2022-12-13T19:06:41.029Z,33.72
2022-12-13T19:09:09.324Z,32.30
2022-12-13T19:11:38.068Z,33.70
2022-12-13T19:14:05.296Z,34.05
2022-12-13T19:16:38.284Z,35.97
2022-12-13T19:19:07.646Z,32.95
2022-12-13T19:21:36.238Z,38.42
2022-12-13T19:24:07.596Z,36.90
2022-12-13T19:26:37.120Z,39.13
2022-12-13T19:29:05.042Z,40.20
2022-12-13T19:31:34.867Z,38.78
2022-12-13T19:34:04.172Z,42.65
2022-12-13T19:36:32.865Z,39.42
2022-12-13T19:39:01.568Z,38.78
2022-12-13T19:41:33.824Z,38.87
2022-12-13T19:44:05.964Z,40.55
2022-12-13T19:46:34.333Z,41.13
2022-12-13T19:49:02.402Z,37.22
2022-12-13T19:51:35.849Z,39.83
2022-12-13T19:54:07.724Z,37.00
2022-12-13T19:56:35.678Z,37.83
2022-12-13T19:59:03.607Z,38.10
2022-12-13T20:01:32.876Z,35.58
2022-12-13T20:04:22.019Z,33.95
2022-12-13T20:06:58.167Z,34.33
2022-12-13T20:09:47.636Z,33.90
2022-12-13T20:12:40.967Z,32.45
2022-12-13T20:15:29.477Z,31.95
2022-12-13T20:18:17.241Z,32.97
2022-12-13T20:21:12.971Z,33.33
2022-12-13T20:23:48.779Z,32.45
2022-12-13T20:26:21.441Z,34.35
2022-12-13T20:28:50.556Z,33.90
2022-12-13T20:31:39.238Z,34.92
2022-12-13T20:34:10.829Z,33.97
2022-12-13T20:36:38.479Z,34.97
2022-12-13T20:39:07.674Z,35.30
2022-12-13T20:41:36.769Z,38.85
2022-12-13T20:44:13.005Z,39.25
2022-12-13T20:46:44.690Z,40.30
2022-12-13T20:49:12.802Z,38.95
2022-12-13T20:51:42.304Z,41.67
2022-12-13T20:54:10.706Z,34.92
2022-12-13T20:56:39.133Z,34.72
2022-12-13T20:59:09.311Z,30.03
2022-12-13T21:01:39.049Z,31.75
2022-12-13T21:04:09.255Z,32.35
2022-12-13T21:06:38.737Z,31.45
2022-12-13T21:09:07.288Z,34.03
2022-12-13T21:11:37.344Z,34.43
2022-12-13T21:14:23.275Z,32.03
2022-12-13T21:16:54.417Z,29.48
2022-12-13T21:19:25.618Z,26.25
2022-12-13T21:21:53.682Z,26.02
2022-12-13T21:24:23.436Z,22.77
2022-12-13T21:26:56.490Z,21.33
2022-12-13T21:29:24.100Z,23.48
2022-12-13T21:31:51.138Z,20.67
2022-12-13T21:34:19.525Z,21.90
2022-12-13T21:36:48.785Z,21.13
2022-12-13T21:39:22.906Z,20.88
2022-12-13T21:41:50.114Z,21.10
2022-12-13T21:44:18.269Z,20.98
2022-12-13T21:49:32.283Z,19.48
2022-12-13T21:51:59.121Z,20.20
2022-12-13T21:54:25.899Z,20.75
2022-12-13T21:57:11.412Z,20.37
2022-12-13T21:59:38.461Z,19.30
2022-12-13T22:02:16.937Z,19.33
2022-12-13T22:04:57.850Z,18.20
2022-12-13T22:07:30.420Z,17.58
2022-12-13T22:09:58.335Z,20.25
2022-12-13T22:12:30.969Z,19.57
2022-12-13T22:14:57.932Z,21.15
2022-12-13T22:17:34.318Z,19.87
2022-12-13T22:20:03.963Z,19.15
2022-12-13T22:22:30.950Z,18.48
2022-12-13T22:24:58.060Z,18.93
2022-12-13T22:27:25.573Z,19.48
2022-12-13T22:29:54.490Z,20.20
2022-12-13T22:32:21.414Z,21.17
2022-12-13T22:34:48.845Z,18.95
2022-12-13T22:37:15.793Z,19.27
2022-12-13T22:39:42.624Z,18.25
2022-12-13T22:42:09.458Z,19.58
2022-12-13T22:44:36.338Z,20.33
2022-12-13T22:47:03.232Z,18.98
2022-12-13T22:49:30.018Z,19.07
2022-12-13T22:51:57.434Z,19.60
2022-12-13T22:54:24.373Z,19.80
2022-12-13T22:56:51.754Z,20.33
2022-12-13T22:59:18.604Z,19.60
2022-12-13T23:01:47.392Z,18.73
2022-12-13T23:04:15.400Z,18.77
2022-12-13T23:06:42.483Z,19.33
2022-12-13T23:09:14.492Z,20.50
2022-12-13T23:12:00.462Z,19.45
2022-12-13T23:14:32.757Z,18.57
2022-12-13T23:17:01.351Z,19.27
2022-12-13T23:19:41.668Z,19.30
2022-12-13T23:22:16.357Z,18.62
2022-12-13T23:24:43.252Z,18.27
2022-12-13T23:27:10.099Z,20.93
2022-12-13T23:29:37.054Z,18.20
2022-12-13T23:32:04.649Z,21.25
2022-12-13T23:34:31.598Z,19.77
2022-12-13T23:36:58.480Z,19.17
2022-12-13T23:39:25.481Z,18.83
2022-12-13T23:41:52.355Z,19.20
2022-12-13T23:44:19.192Z,19.98
2022-12-13T23:46:48.550Z,19.48
2022-12-13T23:49:17.546Z,16.33
2022-12-13T23:51:44.491Z,18.13
2022-12-13T23:54:16.435Z,13.60
2022-12-13T23:56:43.792Z,11.55
2022-12-13T23:59:11.210Z,10.57
